createdAt,value
2023-03-21T00:07:37.798Z,18.17
2023-03-21T00:13:06.473Z,18.13
2023-03-21T00:20:31.244Z,18.01
2023-03-21T00:34:42.934Z,17.98
2023-03-21T00:39:48.513Z,17.95
2023-03-21T00:40:48.740Z,17.97
2023-03-21T00:41:42.508Z,17.90
2023-03-21T00:42:43.716Z,17.94
2023-03-21T00:44:01.776Z,17.97
2023-03-21T00:45:38.338Z,17.93
2023-03-21T00:46:25.240Z,17.95
2023-03-21T00:47:28.971Z,17.96
2023-03-21T00:47:52.057Z,17.90
2023-03-21T00:48:15.392Z,17.95
2023-03-21T00:48:37.177Z,17.97
2023-03-21T00:49:00.602Z,17.89
2023-03-21T00:49:33.664Z,17.95
2023-03-21T00:49:57.798Z,18.00
2023-03-21T00:50:26.127Z,17.98
2023-03-21T00:59:24.384Z,17.94
2023-03-21T01:09:29.652Z,17.99
2023-03-21T01:38:14.395Z,17.91
2023-03-21T01:38:38.575Z,17.96
2023-03-21T01:39:00.679Z,17.98
2023-03-21T01:39:25.647Z,17.95
2023-03-21T01:39:49.845Z,17.97
2023-03-21T01:40:17.420Z,17.98
2023-03-21T01:40:45.514Z,17.95
2023-03-21T01:41:22.043Z,17.97
2023-03-21T01:41:46.374Z,17.98
2023-03-21T01:42:16.296Z,17.99
2023-03-21T01:42:40.289Z,17.99
2023-03-21T01:43:03.041Z,18.00
2023-03-21T01:43:28.953Z,18.01
2023-03-21T01:43:52.990Z,17.98
2023-03-21T01:44:19.242Z,17.97
2023-03-21T01:44:56.942Z,17.96
2023-03-21T01:45:54.693Z,17.99
2023-03-21T01:46:44.045Z,17.97
2023-03-21T01:47:30.713Z,17.96
2023-03-21T01:48:17.910Z,17.95
2023-03-21T01:48:45.012Z,17.95
2023-03-21T01:49:16.068Z,17.95
2023-03-21T01:49:46.427Z,17.96
2023-03-21T01:50:14.765Z,17.95
2023-03-21T01:50:46.642Z,17.84
2023-03-21T01:51:42.230Z,17.97
2023-03-21T01:52:13.140Z,17.92
2023-03-21T01:52:42.030Z,17.96
2023-03-21T01:53:19.859Z,17.98
2023-03-21T01:53:42.743Z,17.92
2023-03-21T01:54:11.349Z,17.95
2023-03-21T01:54:38.689Z,17.92
2023-03-21T01:55:04.825Z,17.95
2023-03-21T01:55:36.758Z,17.94
2023-03-21T01:56:12.316Z,17.94
2023-03-21T02:07:16.048Z,17.78
2023-03-21T02:07:44.074Z,17.79
2023-03-21T02:08:13.393Z,17.78
2023-03-21T02:08:39.929Z,17.80
2023-03-21T02:09:12.580Z,17.79
2023-03-21T02:09:37.168Z,17.81
2023-03-21T02:10:06.115Z,17.82
2023-03-21T02:10:29.647Z,17.81
2023-03-21T02:10:53.751Z,17.77
2023-03-21T02:11:27.631Z,17.79
2023-03-21T02:11:49.671Z,17.81
2023-03-21T02:12:16.164Z,17.81
2023-03-21T02:12:38.799Z,17.79
2023-03-21T02:13:09.434Z,17.85
2023-03-21T02:13:33.310Z,17.87
2023-03-21T02:14:06.360Z,17.86
2023-03-21T02:14:40.867Z,17.88
2023-03-21T02:15:27.209Z,17.90
2023-03-21T02:16:18.339Z,17.91
2023-03-21T02:16:50.570Z,17.92
2023-03-21T02:17:20.932Z,17.62
2023-03-21T02:17:50.918Z,17.87
2023-03-21T02:18:26.156Z,17.88
2023-03-21T02:18:56.451Z,17.91
2023-03-21T02:20:14.374Z,17.89
2023-03-21T02:21:16.864Z,17.87
2023-03-21T02:22:17.936Z,17.85
2023-03-21T02:23:25.529Z,17.84
2023-03-21T02:24:18.408Z,17.83
2023-03-21T02:25:06.141Z,17.72
2023-03-21T02:25:56.608Z,17.76
2023-03-21T02:26:52.464Z,17.75
2023-03-21T02:27:28.379Z,17.75
2023-03-21T02:28:01.452Z,17.76
2023-03-21T02:28:26.227Z,17.78
2023-03-21T02:28:56.513Z,17.77
2023-03-21T02:29:41.610Z,17.82
2023-03-21T02:30:28.808Z,17.76
2023-03-21T02:31:35.212Z,17.82
2023-03-21T02:32:20.400Z,17.82
2023-03-21T02:33:21.483Z,17.84
2023-03-21T02:34:13.015Z,17.83
2023-03-21T02:34:48.382Z,17.85
2023-03-21T02:35:39.089Z,17.84
2023-03-21T02:36:22.460Z,17.79
2023-03-21T02:36:57.429Z,17.84
2023-03-21T02:37:37.598Z,17.86
2023-03-21T02:38:05.199Z,17.81
2023-03-21T02:38:32.066Z,17.86
2023-03-21T02:39:04.098Z,17.88
2023-03-21T02:39:31.045Z,17.89
2023-03-21T02:40:07.823Z,17.91
2023-03-21T02:40:36.392Z,17.91
2023-03-21T02:41:13.260Z,17.82
2023-03-21T02:41:48.997Z,17.91
2023-03-21T02:42:22.154Z,17.89
2023-03-21T02:43:01.023Z,17.90
2023-03-21T02:43:38.239Z,17.90
2023-03-21T02:44:08.763Z,17.88
2023-03-21T02:44:45.334Z,17.87
2023-03-21T02:45:11.571Z,17.85
2023-03-21T02:45:40.856Z,17.87
2023-03-21T02:46:11.288Z,17.85
2023-03-21T02:46:45.635Z,17.86
2023-03-21T02:47:14.835Z,17.86
2023-03-21T02:47:43.939Z,17.83
2023-03-21T02:48:14.513Z,17.78
2023-03-21T02:48:50.833Z,17.80
2023-03-21T02:49:20.817Z,17.83
2023-03-21T02:49:51.178Z,17.73
2023-03-21T02:50:18.388Z,17.76
2023-03-21T02:50:44.579Z,17.76
2023-03-21T02:51:07.893Z,17.78
2023-03-21T02:51:32.446Z,17.81
2023-03-21T02:52:00.285Z,17.65
2023-03-21T02:52:39.077Z,17.79
2023-03-21T02:53:06.420Z,17.79
2023-03-21T02:53:34.137Z,17.81
2023-03-21T02:54:26.444Z,17.82
2023-03-21T02:54:48.877Z,17.85
2023-03-21T02:55:20.522Z,17.84
2023-03-21T02:55:49.478Z,17.78
2023-03-21T02:56:12.626Z,17.82
2023-03-21T02:56:40.582Z,17.82
2023-03-21T02:57:04.451Z,17.79
2023-03-21T02:57:33.727Z,17.82
2023-03-21T02:58:12.930Z,17.75
2023-03-21T02:58:42.647Z,17.83
2023-03-21T02:59:06.908Z,17.83
2023-03-21T02:59:32.802Z,17.83
2023-03-21T03:00:02.438Z,17.72
2023-03-21T03:00:33.925Z,17.82
2023-03-21T03:00:57.481Z,17.82
2023-03-21T03:01:29.104Z,17.83
2023-03-21T03:01:52.466Z,17.82
2023-03-21T03:02:16.451Z,17.65
2023-03-21T03:02:39.250Z,17.83
2023-03-21T03:03:10.006Z,17.83
2023-03-21T03:03:35.217Z,17.83
2023-03-21T03:03:59.535Z,17.85
2023-03-21T03:04:27.944Z,17.86
2023-03-21T03:04:51.717Z,17.85
2023-03-21T03:05:21.378Z,17.81
2023-03-21T03:05:49.173Z,17.89
2023-03-21T03:06:18.846Z,17.92
2023-03-21T03:06:58.187Z,17.87
2023-03-21T03:07:33.072Z,17.93
2023-03-21T03:08:13.034Z,17.94
2023-03-21T03:08:59.571Z,17.96
2023-03-21T03:09:35.273Z,17.96
2023-03-21T03:10:10.320Z,17.94
2023-03-21T03:10:50.665Z,17.90
2023-03-21T03:11:25.345Z,17.86
2023-03-21T03:11:54.692Z,17.79
2023-03-21T03:12:27.679Z,17.82
2023-03-21T03:13:04.949Z,17.66
2023-03-21T03:13:43.349Z,17.81
2023-03-21T03:14:52.759Z,17.85
2023-03-21T03:15:29.302Z,17.83
2023-03-21T03:16:03.115Z,17.80
2023-03-21T03:16:36.583Z,17.67
2023-03-21T03:17:10.614Z,17.83
2023-03-21T03:17:42.228Z,17.85
2023-03-21T03:18:12.909Z,17.85
2023-03-21T03:18:42.156Z,17.77
2023-03-21T03:19:08.944Z,17.82
2023-03-21T03:19:44.662Z,17.75
2023-03-21T03:20:22.304Z,17.81
2023-03-21T03:20:54.535Z,17.74
2023-03-21T03:21:21.424Z,17.76
2023-03-21T03:21:50.071Z,17.64
2023-03-21T03:22:18.372Z,17.70
2023-03-21T03:22:51.784Z,17.77
2023-03-21T03:23:21.120Z,17.77
2023-03-21T03:23:45.221Z,17.78
2023-03-21T03:24:12.814Z,17.78
2023-03-21T03:24:39.852Z,17.77
2023-03-21T03:25:19.674Z,17.72
2023-03-21T03:25:54.479Z,17.77
2023-03-21T03:26:21.643Z,17.79
2023-03-21T03:26:47.886Z,17.79
2023-03-21T03:27:15.631Z,17.78
2023-03-21T03:27:44.084Z,17.79
2023-03-21T03:28:08.410Z,17.76
2023-03-21T03:28:35.331Z,17.76
2023-03-21T03:29:03.070Z,17.75
2023-03-21T03:29:28.634Z,17.63
2023-03-21T03:29:55.023Z,17.75
2023-03-21T03:30:23.838Z,17.74
2023-03-21T03:31:07.087Z,17.74
2023-03-21T03:31:38.237Z,17.66
2023-03-21T03:32:06.358Z,17.79
2023-03-21T03:32:37.768Z,17.79
2023-03-21T03:33:02.550Z,17.78
2023-03-21T03:33:26.653Z,17.65
2023-03-21T03:33:55.584Z,17.72
2023-03-21T03:34:21.006Z,17.78
2023-03-21T03:34:50.316Z,17.76
2023-03-21T03:35:18.732Z,17.73
2023-03-21T03:35:43.632Z,17.76
2023-03-21T03:36:21.500Z,17.66
2023-03-21T03:36:58.183Z,17.77
2023-03-21T03:37:26.344Z,17.77
2023-03-21T03:37:54.074Z,17.74
2023-03-21T03:38:17.977Z,17.77
2023-03-21T03:38:42.741Z,17.75
2023-03-21T03:39:09.186Z,17.68
2023-03-21T03:39:37.436Z,17.71
2023-03-21T03:40:06.007Z,17.72
2023-03-21T03:45:31.815Z,17.69
2023-03-21T03:50:43.742Z,17.55
2023-03-21T03:51:13.778Z,17.63
2023-03-21T03:52:06.284Z,17.63
2023-03-21T03:52:50.039Z,17.59
2023-03-21T03:53:22.960Z,17.64
2023-03-21T03:53:53.462Z,17.49
2023-03-21T03:54:22.066Z,17.61
2023-03-21T03:54:48.131Z,17.56
2023-03-21T03:55:13.303Z,17.62
2023-03-21T03:55:38.759Z,17.48
2023-03-21T03:56:11.604Z,17.63
2023-03-21T03:56:37.416Z,17.60
2023-03-21T03:56:59.444Z,17.63
2023-03-21T03:57:21.681Z,17.62
2023-03-21T03:57:44.206Z,17.63
2023-03-21T03:58:19.676Z,17.61
2023-03-21T03:58:46.034Z,17.60
2023-03-21T03:59:11.381Z,17.58
2023-03-21T03:59:51.382Z,17.64
2023-03-21T04:00:23.976Z,17.60
2023-03-21T04:00:47.020Z,17.64
2023-03-21T04:01:09.114Z,17.62
2023-03-21T04:01:31.879Z,17.43
2023-03-21T04:01:53.984Z,17.52
2023-03-21T04:02:17.168Z,17.62
2023-03-21T04:02:39.647Z,17.58
2023-03-21T04:03:04.334Z,17.62
2023-03-21T04:03:26.269Z,17.65
2023-03-21T04:03:54.429Z,17.57
2023-03-21T04:04:23.142Z,17.65
2023-03-21T04:04:48.692Z,17.69
2023-03-21T04:05:10.976Z,17.53
2023-03-21T04:05:33.125Z,17.61
2023-03-21T04:05:57.870Z,17.63
2023-03-21T04:06:23.112Z,17.64
2023-03-21T04:06:51.538Z,17.66
2023-03-21T04:07:16.010Z,17.63
2023-03-21T04:07:37.999Z,17.62
2023-03-21T04:08:03.269Z,17.61
2023-03-21T04:08:33.494Z,17.59
2023-03-21T04:08:56.644Z,17.58
2023-03-21T04:09:23.514Z,17.57
2023-03-21T04:09:51.851Z,17.56
2023-03-21T04:10:15.287Z,17.58
2023-03-21T04:10:37.422Z,17.56
2023-03-21T04:10:59.233Z,17.55
2023-03-21T04:11:21.549Z,17.59
2023-03-21T04:18:52.244Z,17.48
2023-03-21T04:21:54.879Z,17.50
2023-03-21T04:22:17.425Z,17.52
2023-03-21T04:22:39.363Z,17.55
2023-03-21T04:23:01.240Z,17.40
2023-03-21T04:23:24.470Z,17.56
2023-03-21T04:23:49.028Z,17.59
2023-03-21T04:24:13.964Z,17.60
2023-03-21T04:24:39.729Z,17.61
2023-03-21T04:25:05.282Z,17.63
2023-03-21T04:25:33.710Z,17.63
2023-03-21T04:25:57.542Z,17.62
2023-03-21T04:26:39.312Z,17.62
2023-03-21T04:27:23.353Z,17.59
2023-03-21T04:28:04.263Z,17.58
2023-03-21T04:28:51.390Z,17.53
2023-03-21T04:29:20.426Z,17.51
2023-03-21T04:30:00.743Z,17.44
2023-03-21T04:30:40.942Z,17.51
2023-03-21T04:31:22.617Z,17.39
2023-03-21T04:31:49.904Z,17.50
2023-03-21T04:32:19.925Z,17.49
2023-03-21T04:32:55.263Z,17.43
2023-03-21T04:33:17.186Z,17.45
2023-03-21T04:33:47.850Z,17.40
2023-03-21T04:34:12.639Z,17.35
2023-03-21T04:34:40.551Z,17.36
2023-03-21T04:35:03.006Z,17.38
2023-03-21T04:35:25.031Z,17.42
2023-03-21T04:35:47.514Z,17.46
2023-03-21T04:36:27.298Z,17.48
2023-03-21T04:36:54.219Z,17.32
2023-03-21T04:37:16.754Z,17.45
2023-03-21T04:37:39.230Z,17.54
2023-03-21T04:38:03.568Z,17.54
2023-03-21T04:38:30.695Z,17.57
2023-03-21T04:39:00.794Z,17.53
2023-03-21T04:39:24.868Z,17.54
2023-03-21T04:39:48.405Z,17.52
2023-03-21T04:40:11.472Z,17.51
2023-03-21T04:40:33.745Z,17.56
2023-03-21T04:40:55.684Z,17.55
2023-03-21T04:41:18.251Z,17.56
2023-03-21T04:41:41.634Z,17.51
2023-03-21T04:42:03.346Z,17.45
2023-03-21T04:42:25.081Z,17.31
2023-03-21T04:53:24.195Z,17.43
2023-03-21T04:53:53.453Z,17.42
2023-03-21T04:54:16.688Z,17.48
2023-03-21T04:54:40.148Z,17.48
2023-03-21T04:55:05.235Z,17.45
2023-03-21T04:55:29.743Z,17.49
2023-03-21T04:55:54.870Z,17.48
2023-03-21T04:56:17.253Z,17.50
2023-03-21T04:56:39.927Z,17.52
2023-03-21T04:57:02.586Z,17.53
2023-03-21T04:57:24.387Z,17.55
2023-03-21T04:57:46.277Z,17.56
2023-03-21T04:58:08.760Z,17.56
2023-03-21T04:58:30.506Z,17.56
2023-03-21T04:58:53.203Z,17.57
2023-03-21T04:59:16.565Z,17.26
2023-03-21T04:59:38.453Z,17.57
2023-03-21T05:00:00.576Z,17.51
2023-03-21T05:00:25.925Z,17.57
2023-03-21T05:00:47.803Z,17.60
2023-03-21T05:01:09.829Z,17.48
2023-03-21T05:01:31.642Z,17.61
2023-03-21T05:01:53.656Z,17.61
2023-03-21T05:02:16.851Z,17.55
2023-03-21T05:02:38.823Z,17.61
2023-03-21T05:03:01.196Z,17.60
2023-03-21T05:03:23.108Z,17.60
2023-03-21T05:03:44.773Z,17.60
2023-03-21T05:04:08.129Z,17.61
2023-03-21T05:04:31.015Z,17.59
2023-03-21T05:04:55.619Z,17.60
2023-03-21T05:05:18.800Z,17.59
2023-03-21T05:05:41.534Z,17.62
2023-03-21T05:06:03.263Z,17.61
2023-03-21T05:06:26.031Z,17.63
2023-03-21T05:06:47.618Z,17.48
2023-03-21T05:07:12.415Z,17.63
2023-03-21T05:07:34.276Z,17.66
2023-03-21T05:07:57.118Z,17.62
2023-03-21T05:08:19.051Z,17.68
2023-03-21T05:08:41.719Z,17.68
2023-03-21T05:09:07.148Z,17.65
2023-03-21T05:09:31.539Z,17.70
2023-03-21T05:09:53.418Z,17.68
2023-03-21T05:10:16.388Z,17.69
2023-03-21T05:10:38.537Z,17.69
2023-03-21T05:11:00.312Z,17.68
2023-03-21T05:11:23.127Z,17.66
2023-03-21T05:11:45.516Z,17.68
2023-03-21T05:12:10.318Z,17.69
2023-03-21T05:12:32.185Z,17.71
2023-03-21T05:12:54.743Z,17.72
2023-03-21T05:13:18.147Z,17.73
2023-03-21T05:13:41.400Z,17.75
2023-03-21T05:14:04.598Z,17.76
2023-03-21T05:14:27.135Z,17.73
2023-03-21T05:14:49.753Z,17.75
2023-03-21T05:15:11.918Z,17.74
2023-03-21T05:15:35.639Z,17.74
2023-03-21T05:15:57.907Z,17.67
2023-03-21T05:16:19.682Z,17.67
2023-03-21T05:16:45.067Z,17.69
2023-03-21T05:17:08.557Z,17.68
2023-03-21T05:17:31.289Z,17.65
2023-03-21T05:17:58.020Z,17.66
2023-03-21T05:18:25.039Z,17.59
2023-03-21T05:19:08.055Z,17.51
2023-03-21T05:19:35.343Z,17.50
2023-03-21T05:19:58.785Z,17.54
2023-03-21T05:20:20.566Z,17.50
2023-03-21T05:20:43.914Z,17.49
2023-03-21T05:21:07.944Z,17.51
2023-03-21T05:21:34.197Z,17.53
2023-03-21T05:21:56.845Z,17.54
2023-03-21T05:22:24.346Z,17.49
2023-03-21T05:22:51.341Z,17.50
2023-03-21T05:23:13.686Z,17.54
2023-03-21T05:23:38.222Z,17.55
2023-03-21T05:24:03.509Z,17.48
2023-03-21T05:24:26.355Z,17.57
2023-03-21T05:24:51.224Z,17.56
2023-03-21T05:25:36.120Z,17.56
2023-03-21T05:26:05.742Z,17.54
2023-03-21T05:26:34.024Z,17.52
2023-03-21T05:27:08.651Z,17.51
2023-03-21T05:27:36.898Z,17.50
2023-03-21T05:28:06.903Z,17.51
2023-03-21T05:28:31.589Z,17.49
2023-03-21T05:28:55.061Z,17.44
2023-03-21T05:29:18.319Z,17.38
2023-03-21T05:29:46.827Z,17.43
2023-03-21T05:30:11.745Z,17.41
2023-03-21T05:30:34.489Z,17.43
2023-03-21T05:30:57.575Z,17.18
2023-03-21T05:31:20.848Z,17.49
2023-03-21T05:31:46.720Z,17.46
2023-03-21T05:32:11.424Z,17.41
2023-03-21T05:32:34.628Z,17.44
2023-03-21T05:32:58.139Z,17.44
2023-03-21T05:33:20.345Z,17.46
2023-03-21T05:33:42.568Z,17.51
2023-03-21T05:34:05.300Z,17.54
2023-03-21T05:34:30.862Z,17.56
2023-03-21T05:34:52.855Z,17.59
2023-03-21T05:35:17.348Z,17.56
2023-03-21T05:35:40.066Z,17.58
2023-03-21T05:36:06.302Z,17.62
2023-03-21T05:36:29.370Z,17.62
2023-03-21T05:36:52.010Z,17.62
2023-03-21T05:37:16.248Z,17.61
2023-03-21T05:37:44.794Z,17.60
2023-03-21T05:38:06.866Z,17.52
2023-03-21T05:38:39.705Z,17.51
2023-03-21T05:39:02.569Z,17.54
2023-03-21T05:39:27.629Z,17.53
2023-03-21T05:39:58.656Z,17.56
2023-03-21T05:40:27.464Z,17.55
2023-03-21T05:40:55.414Z,17.52
2023-03-21T05:41:19.395Z,17.58
2023-03-21T05:41:47.073Z,17.48
2023-03-21T05:42:09.915Z,17.60
2023-03-21T05:42:32.635Z,17.62
2023-03-21T05:42:55.018Z,17.57
2023-03-21T05:43:18.492Z,17.63
2023-03-21T05:43:42.917Z,17.54
2023-03-21T05:44:05.640Z,17.62
2023-03-21T05:44:27.684Z,17.53
2023-03-21T05:44:49.787Z,17.56
2023-03-21T05:45:16.107Z,17.56
2023-03-21T05:45:40.293Z,17.55
2023-03-21T05:46:02.151Z,17.54
2023-03-21T05:46:25.408Z,17.37
2023-03-21T05:46:48.743Z,17.57
2023-03-21T05:47:14.446Z,17.59
2023-03-21T05:47:39.919Z,17.60
2023-03-21T05:48:03.557Z,17.58
2023-03-21T05:48:31.004Z,17.60
2023-03-21T05:49:07.628Z,17.57
2023-03-21T05:49:30.909Z,17.57
2023-03-21T05:49:56.854Z,17.62
2023-03-21T05:50:19.731Z,17.62
2023-03-21T05:50:50.760Z,17.61
2023-03-21T05:51:18.238Z,17.59
2023-03-21T05:51:41.294Z,17.62
2023-03-21T05:52:03.417Z,17.62
2023-03-21T05:52:25.443Z,17.57
2023-03-21T05:52:48.373Z,17.58
2023-03-21T05:53:10.627Z,17.61
2023-03-21T05:53:32.573Z,17.58
2023-03-21T05:53:54.310Z,17.59
2023-03-21T05:54:18.116Z,17.58
2023-03-21T05:54:43.153Z,17.57
2023-03-21T05:55:07.517Z,17.57
2023-03-21T05:55:30.340Z,17.58
2023-03-21T05:55:53.253Z,17.46
2023-03-21T05:56:33.019Z,17.46
2023-03-21T05:57:01.910Z,17.53
2023-03-21T05:57:48.170Z,17.47
2023-03-21T05:58:18.090Z,17.51
2023-03-21T05:58:45.473Z,17.39
2023-03-21T05:59:08.080Z,17.46
2023-03-21T05:59:35.520Z,17.50
2023-03-21T05:59:57.256Z,17.46
2023-03-21T06:00:21.999Z,17.54
2023-03-21T06:01:05.071Z,17.54
2023-03-21T06:01:29.666Z,17.54
2023-03-21T06:02:03.071Z,17.51
2023-03-21T06:02:24.867Z,17.50
2023-03-21T06:02:46.947Z,17.46
2023-03-21T06:03:34.891Z,17.41
2023-03-21T06:04:02.828Z,17.38
2023-03-21T06:04:25.653Z,17.47
2023-03-21T06:04:48.653Z,17.48
2023-03-21T06:05:14.436Z,17.49
2023-03-21T06:05:37.167Z,17.52
2023-03-21T06:06:05.171Z,17.54
2023-03-21T06:06:34.718Z,17.55
2023-03-21T06:06:56.945Z,17.55
2023-03-21T06:07:21.889Z,17.51
2023-03-21T06:07:47.657Z,17.56
2023-03-21T06:08:09.461Z,17.51
2023-03-21T06:08:32.314Z,17.57
2023-03-21T06:08:53.988Z,17.55
2023-03-21T06:09:16.742Z,17.47
2023-03-21T06:09:45.914Z,17.45
2023-03-21T06:10:11.748Z,17.49
2023-03-21T06:10:36.434Z,17.52
2023-03-21T06:11:00.350Z,17.54
2023-03-21T06:11:28.078Z,17.55
2023-03-21T06:12:11.460Z,17.60
2023-03-21T06:13:01.243Z,17.59
2023-03-21T06:13:27.313Z,17.59
2023-03-21T06:13:49.177Z,17.57
2023-03-21T06:14:10.921Z,17.48
2023-03-21T06:14:34.545Z,17.49
2023-03-21T06:15:15.390Z,17.53
2023-03-21T06:15:48.335Z,17.42
2023-03-21T06:16:14.940Z,17.42
2023-03-21T06:16:36.846Z,17.47
2023-03-21T06:16:58.798Z,17.37
2023-03-21T06:17:22.602Z,17.43
2023-03-21T06:17:51.944Z,17.49
2023-03-21T06:18:13.796Z,17.47
2023-03-21T06:18:45.254Z,17.47
2023-03-21T06:19:26.561Z,17.49
2023-03-21T06:19:58.583Z,17.49
2023-03-21T06:20:26.799Z,17.48
2023-03-21T06:20:57.766Z,17.49
2023-03-21T06:21:22.027Z,17.51
2023-03-21T06:21:45.296Z,17.46
2023-03-21T06:22:07.669Z,17.40
2023-03-21T06:22:34.154Z,17.45
2023-03-21T06:22:57.460Z,17.46
2023-03-21T06:23:19.087Z,17.49
2023-03-21T06:23:41.320Z,17.39
2023-03-21T06:24:04.474Z,17.41
2023-03-21T06:24:26.602Z,17.44
2023-03-21T06:24:49.123Z,17.49
2023-03-21T06:25:16.868Z,17.44
2023-03-21T06:25:40.345Z,17.46
2023-03-21T06:26:02.372Z,17.45
2023-03-21T06:26:25.217Z,17.47
2023-03-21T06:26:49.481Z,17.32
2023-03-21T06:27:11.496Z,17.50
2023-03-21T06:27:45.030Z,17.52
2023-03-21T06:28:09.765Z,17.50
2023-03-21T06:28:36.984Z,17.45
2023-03-21T06:28:58.916Z,17.57
2023-03-21T06:29:22.122Z,17.53
2023-03-21T06:29:45.971Z,17.60
2023-03-21T06:30:11.052Z,17.59
2023-03-21T06:30:41.819Z,17.31
2023-03-21T06:31:11.723Z,17.43
2023-03-21T06:31:34.070Z,17.40
2023-03-21T06:31:59.647Z,17.52
2023-03-21T06:32:22.098Z,17.40
2023-03-21T06:32:49.796Z,17.05
2023-03-21T06:33:17.479Z,17.42
2023-03-21T06:33:39.958Z,17.41
2023-03-21T06:34:02.128Z,17.43
2023-03-21T06:34:25.328Z,17.40
2023-03-21T06:34:47.559Z,17.44
2023-03-21T06:35:10.729Z,17.44
2023-03-21T06:35:33.537Z,17.36
2023-03-21T06:35:59.136Z,17.34
2023-03-21T06:36:21.910Z,17.32
2023-03-21T06:36:44.669Z,17.32
2023-03-21T06:37:08.332Z,17.20
2023-03-21T06:37:32.462Z,17.30
2023-03-21T06:37:54.788Z,17.25
2023-03-21T06:38:16.606Z,17.18
2023-03-21T06:38:39.305Z,17.18
2023-03-21T06:39:01.079Z,17.21
2023-03-21T06:39:23.171Z,17.27
2023-03-21T06:39:47.181Z,17.21
2023-03-21T06:40:10.576Z,17.18
2023-03-21T06:40:35.954Z,17.17
2023-03-21T06:40:59.153Z,17.24
2023-03-21T06:41:24.365Z,17.32
2023-03-21T06:41:53.538Z,17.31
2023-03-21T06:42:17.152Z,17.30
2023-03-21T06:42:39.159Z,17.40
2023-03-21T06:43:04.965Z,17.44
2023-03-21T06:43:28.042Z,17.39
2023-03-21T06:43:50.871Z,17.33
2023-03-21T06:45:34.828Z,17.45
2023-03-21T06:46:58.513Z,17.45
2023-03-21T06:50:21.159Z,17.45
2023-03-21T06:50:59.225Z,17.24
2023-03-21T06:51:46.866Z,17.48
2023-03-21T06:52:34.287Z,17.49
2023-03-21T06:53:16.785Z,17.49
2023-03-21T06:54:26.172Z,17.53
2023-03-21T06:55:08.941Z,17.54
2023-03-21T06:55:38.090Z,17.54
2023-03-21T06:56:06.459Z,17.58
2023-03-21T06:56:31.793Z,17.55
2023-03-21T06:57:07.388Z,17.55
2023-03-21T06:58:37.348Z,17.61
2023-03-21T06:59:48.473Z,17.56
2023-03-21T07:00:42.832Z,17.55
2023-03-21T07:02:49.402Z,17.63
2023-03-21T07:03:33.788Z,17.63
2023-03-21T07:04:07.264Z,17.69
2023-03-21T07:04:47.273Z,17.68
2023-03-21T07:05:20.363Z,17.69
2023-03-21T07:05:43.875Z,17.68
2023-03-21T07:06:13.675Z,17.61
2023-03-21T07:06:37.438Z,17.64
2023-03-21T07:07:08.862Z,17.66
2023-03-21T07:07:39.733Z,17.68
2023-03-21T07:08:11.461Z,17.67
2023-03-21T07:08:38.264Z,17.67
2023-03-21T07:09:13.220Z,17.67
2023-03-21T07:09:37.607Z,17.66
2023-03-21T07:10:12.729Z,17.66
2023-03-21T07:10:58.094Z,17.68
2023-03-21T07:11:23.308Z,17.72
2023-03-21T07:11:55.188Z,17.71
2023-03-21T07:12:22.523Z,17.71
2023-03-21T07:13:05.593Z,17.73
2023-03-21T07:14:07.773Z,17.75
2023-03-21T07:14:41.093Z,17.81
2023-03-21T07:15:10.189Z,17.78
2023-03-21T07:15:45.039Z,17.79
2023-03-21T07:16:24.661Z,17.69
2023-03-21T07:17:31.678Z,17.75
2023-03-21T07:18:19.433Z,17.76
2023-03-21T07:18:42.515Z,17.80
2023-03-21T07:19:04.177Z,17.72
2023-03-21T07:19:26.467Z,17.80
2023-03-21T07:19:49.112Z,17.80
2023-03-21T07:20:14.084Z,17.75
2023-03-21T07:20:38.048Z,17.73
2023-03-21T07:21:00.633Z,17.72
2023-03-21T07:21:22.865Z,17.71
2023-03-21T07:21:44.534Z,17.74
2023-03-21T07:22:06.329Z,17.76
2023-03-21T07:22:29.114Z,17.69
2023-03-21T07:22:50.684Z,17.65
2023-03-21T07:23:12.531Z,17.77
2023-03-21T07:23:34.663Z,17.77
2023-03-21T07:23:57.422Z,17.79
2023-03-21T07:24:19.089Z,17.82
2023-03-21T07:24:40.795Z,17.79
2023-03-21T07:25:05.521Z,17.82
2023-03-21T07:25:34.551Z,17.76
2023-03-21T07:25:57.810Z,17.77
2023-03-21T07:26:19.600Z,17.78
2023-03-21T07:26:42.970Z,17.82
2023-03-21T07:27:04.617Z,17.82
2023-03-21T07:27:26.732Z,17.84
2023-03-21T07:27:48.447Z,17.86
2023-03-21T07:28:11.401Z,17.88
2023-03-21T07:28:33.626Z,17.88
2023-03-21T07:28:56.064Z,17.91
2023-03-21T07:29:21.319Z,17.91
2023-03-21T07:29:44.675Z,17.90
2023-03-21T07:30:07.714Z,17.91
2023-03-21T07:30:29.384Z,17.94
2023-03-21T07:30:55.812Z,17.83
2023-03-21T07:31:19.384Z,17.94
2023-03-21T07:31:43.447Z,17.92
2023-03-21T07:32:06.478Z,17.95
2023-03-21T07:32:29.870Z,17.91
2023-03-21T07:32:53.361Z,17.90
2023-03-21T07:33:15.359Z,17.91
2023-03-21T07:33:37.052Z,17.84
2023-03-21T07:33:59.696Z,17.90
2023-03-21T07:34:21.792Z,17.90
2023-03-21T07:34:43.391Z,17.90
2023-03-21T07:35:06.724Z,17.91
2023-03-21T07:35:29.705Z,17.91
2023-03-21T07:35:51.895Z,17.87
2023-03-21T07:36:15.870Z,17.84
2023-03-21T07:36:37.788Z,17.84
2023-03-21T07:37:02.955Z,17.84
2023-03-21T07:37:25.827Z,17.85
2023-03-21T07:37:47.525Z,17.85
2023-03-21T07:38:13.822Z,17.88
2023-03-21T07:38:36.382Z,17.85
2023-03-21T07:38:58.298Z,17.87
2023-03-21T07:39:21.244Z,17.86
2023-03-21T07:39:43.172Z,17.81
2023-03-21T07:40:07.584Z,17.83
2023-03-21T07:40:29.294Z,17.85
2023-03-21T07:40:52.302Z,17.87
2023-03-21T07:41:37.974Z,17.83
2023-03-21T07:42:17.646Z,17.83
2023-03-21T07:42:41.106Z,17.81
2023-03-21T07:43:04.539Z,17.78
2023-03-21T07:43:30.134Z,17.71
2023-03-21T07:43:53.676Z,17.74
2023-03-21T07:44:15.684Z,17.74
2023-03-21T07:44:38.357Z,17.68
2023-03-21T07:45:00.008Z,17.76
2023-03-21T07:45:27.643Z,17.77
2023-03-21T07:45:50.252Z,17.78
2023-03-21T07:46:12.224Z,17.81
2023-03-21T07:46:33.898Z,17.80
2023-03-21T07:46:55.981Z,17.81
2023-03-21T07:47:19.319Z,17.75
2023-03-21T07:47:44.498Z,17.68
2023-03-21T07:48:06.464Z,17.75
2023-03-21T07:48:30.524Z,17.76
2023-03-21T07:48:52.214Z,17.77
2023-03-21T07:49:13.856Z,17.72
2023-03-21T07:49:36.921Z,17.75
2023-03-21T07:50:25.500Z,17.74
2023-03-21T07:50:55.896Z,17.66
2023-03-21T07:51:26.258Z,17.66
2023-03-21T07:52:47.122Z,17.56
2023-03-21T07:53:08.923Z,17.59
2023-03-21T07:53:31.743Z,17.58
2023-03-21T07:53:54.791Z,17.56
2023-03-21T07:54:19.228Z,17.51
2023-03-21T07:54:41.111Z,17.58
2023-03-21T07:55:03.776Z,17.61
2023-03-21T07:55:25.397Z,17.65
2023-03-21T07:55:50.413Z,17.59
2023-03-21T07:56:13.041Z,17.61
2023-03-21T07:56:36.485Z,17.55
2023-03-21T07:56:58.493Z,17.55
2023-03-21T07:57:20.384Z,17.54
2023-03-21T07:57:43.004Z,17.50
2023-03-21T07:58:05.381Z,17.57
2023-03-21T07:58:27.148Z,17.56
2023-03-21T07:58:48.818Z,17.57
2023-03-21T07:59:14.005Z,17.54
2023-03-21T07:59:36.388Z,17.55
2023-03-21T07:59:58.242Z,17.55
2023-03-21T08:00:23.205Z,17.54
2023-03-21T08:00:46.465Z,17.44
2023-03-21T08:01:08.102Z,17.58
2023-03-21T08:01:29.795Z,17.58
2023-03-21T08:01:51.719Z,17.58
2023-03-21T08:02:16.127Z,17.59
2023-03-21T08:02:37.910Z,17.50
2023-03-21T08:03:00.113Z,17.54
2023-03-21T08:03:23.945Z,17.56
2023-03-21T08:03:46.231Z,17.49
2023-03-21T08:04:08.737Z,17.62
2023-03-21T08:04:32.275Z,17.58
2023-03-21T08:04:53.972Z,17.60
2023-03-21T08:05:15.560Z,17.60
2023-03-21T08:05:39.675Z,17.62
2023-03-21T08:06:01.839Z,17.61
2023-03-21T08:06:23.540Z,17.55
2023-03-21T08:06:46.113Z,17.52
2023-03-21T08:07:09.146Z,17.64
2023-03-21T08:07:30.751Z,17.62
2023-03-21T08:07:53.743Z,17.66
2023-03-21T08:08:15.577Z,17.66
2023-03-21T08:08:37.357Z,17.48
2023-03-21T08:08:59.019Z,17.52
2023-03-21T08:09:22.979Z,17.54
2023-03-21T08:09:44.861Z,17.51
2023-03-21T08:10:07.974Z,17.55
2023-03-21T08:10:31.146Z,17.58
2023-03-21T08:10:52.805Z,17.59
2023-03-21T08:11:14.597Z,17.59
2023-03-21T08:11:37.651Z,17.55
2023-03-21T08:12:00.254Z,17.58
2023-03-21T08:12:24.450Z,17.57
2023-03-21T08:12:46.476Z,17.58
2023-03-21T08:13:08.028Z,17.59
2023-03-21T08:13:30.626Z,17.58
2023-03-21T08:13:52.295Z,17.55
2023-03-21T08:14:13.952Z,17.54
2023-03-21T08:14:36.971Z,17.49
2023-03-21T08:15:01.039Z,17.48
2023-03-21T08:15:23.192Z,17.44
2023-03-21T08:15:46.193Z,17.43
2023-03-21T08:16:08.800Z,17.40